sensor_id;sensor_type;location;lat;lon;timestamp;temperature;humidity
37050;DHT22;22958;51.232;6.826;2022-11-20T00:02:21;4.20;99.90
37050;DHT22;22958;51.232;6.826;2022-11-20T00:04:47;4.10;99.90
37050;DHT22;22958;51.232;6.826;2022-11-20T00:07:12;4.20;99.90
37050;DHT22;22958;51.232;6.826;2022-11-20T00:09:38;4.20;99.90
37050;DHT22;22958;51.232;6.826;2022-11-20T00:12:04;4.20;99.90
37050;DHT22;22958;51.232;6.826;2022-11-20T00:14:29;4.20;99.90
37050;DHT22;22958;51.232;6.826;2022-11-20T00:16:55;4.10;99.90
37050;DHT22;22958;51.232;6.826;2022-11-20T00:19:20;4.10;99.90
37050;DHT22;22958;51.232;6.826;2022-11-20T00:21:46;4.10;99.90
37050;DHT22;22958;51.232;6.826;2022-11-20T00:24:11;4.10;99.90
37050;DHT22;22958;51.232;6.826;2022-11-20T00:26:37;4.10;99.90
37050;DHT22;22958;51.232;6.826;2022-11-20T00:29:03;4.10;99.90
37050;DHT22;22958;51.232;6.826;2022-11-20T00:31:29;4.20;99.90
37050;DHT22;22958;51.232;6.826;2022-11-20T00:33:55;4.10;99.90
37050;DHT22;22958;51.232;6.826;2022-11-20T00:36:23;4.10;99.90
37050;DHT22;22958;51.232;6.826;2022-11-20T00:38:57;4.10;99.90
37050;DHT22;22958;51.232;6.826;2022-11-20T00:41:23;4.10;99.90
37050;DHT22;22958;51.232;6.826;2022-11-20T00:43:52;4.10;99.90
37050;DHT22;22958;51.232;6.826;2022-11-20T00:46:19;4.00;99.90
37050;DHT22;22958;51.232;6.826;2022-11-20T00:48:46;4.10;99.90
37050;DHT22;22958;51.232;6.826;2022-11-20T00:51:14;4.10;99.90
37050;DHT22;22958;51.232;6.826;2022-11-20T00:53:40;4.00;99.90
37050;DHT22;22958;51.232;6.826;2022-11-20T00:56:07;4.00;99.90
37050;DHT22;22958;51.232;6.826;2022-11-20T00:58:38;4.10;99.90
37050;DHT22;22958;51.232;6.826;2022-11-20T01:03:35;4.00;99.90
37050;DHT22;22958;51.232;6.826;2022-11-20T01:06:06;4.00;99.90
37050;DHT22;22958;51.232;6.826;2022-11-20T01:08:34;4.00;99.90
37050;DHT22;22958;51.232;6.826;2022-11-20T01:11:05;4.00;99.90
37050;DHT22;22958;51.232;6.826;2022-11-20T01:13:32;4.00;99.90
37050;DHT22;22958;51.232;6.826;2022-11-20T01:16:27;4.00;99.90
37050;DHT22;22958;51.232;6.826;2022-11-20T01:18:56;4.00;99.90
37050;DHT22;22958;51.232;6.826;2022-11-20T01:21:42;4.10;99.90
37050;DHT22;22958;51.232;6.826;2022-11-20T01:24:11;4.00;99.90
37050;DHT22;22958;51.232;6.826;2022-11-20T01:26:39;4.00;99.90
37050;DHT22;22958;51.232;6.826;2022-11-20T01:29:06;4.00;99.90
37050;DHT22;22958;51.232;6.826;2022-11-20T01:31:36;4.00;99.90
37050;DHT22;22958;51.232;6.826;2022-11-20T01:34:22;4.00;99.90
37050;DHT22;22958;51.232;6.826;2022-11-20T01:36:48;4.20;99.90
37050;DHT22;22958;51.232;6.826;2022-11-20T01:39:19;4.10;99.90
37050;DHT22;22958;51.232;6.826;2022-11-20T01:41:46;4.10;99.90
37050;DHT22;22958;51.232;6.826;2022-11-20T01:44:53;4.00;99.90
37050;DHT22;22958;51.232;6.826;2022-11-20T01:47:40;4.10;99.90
37050;DHT22;22958;51.232;6.826;2022-11-20T01:50:23;4.10;99.90
37050;DHT22;22958;51.232;6.826;2022-11-20T01:52:55;4.10;99.90
37050;DHT22;22958;51.232;6.826;2022-11-20T01:55:26;4.10;99.90
37050;DHT22;22958;51.232;6.826;2022-11-20T01:57:54;4.00;99.90
37050;DHT22;22958;51.232;6.826;2022-11-20T02:00:21;4.00;99.90
37050;DHT22;22958;51.232;6.826;2022-11-20T02:02:51;4.10;99.90
37050;DHT22;22958;51.232;6.826;2022-11-20T02:05:38;4.00;99.90
37050;DHT22;22958;51.232;6.826;2022-11-20T02:08:05;4.00;99.90
37050;DHT22;22958;51.232;6.826;2022-11-20T02:10:32;4.00;99.90
37050;DHT22;22958;51.232;6.826;2022-11-20T02:12:58;4.00;99.90
37050;DHT22;22958;51.232;6.826;2022-11-20T02:15:42;4.00;99.90
37050;DHT22;22958;51.232;6.826;2022-11-20T02:18:09;3.90;99.90
37050;DHT22;22958;51.232;6.826;2022-11-20T02:20:35;4.00;99.90
37050;DHT22;22958;51.232;6.826;2022-11-20T02:23:28;4.00;99.90
37050;DHT22;22958;51.232;6.826;2022-11-20T02:25:51;4.10;99.90
37050;DHT22;22958;51.232;6.826;2022-11-20T02:28:18;4.00;99.90
37050;DHT22;22958;51.232;6.826;2022-11-20T02:30:43;3.90;99.90
37050;DHT22;22958;51.232;6.826;2022-11-20T02:33:09;4.00;99.90
37050;DHT22;22958;51.232;6.826;2022-11-20T02:38:01;3.90;99.90
37050;DHT22;22958;51.232;6.826;2022-11-20T02:40:27;3.90;99.90
37050;DHT22;22958;51.232;6.826;2022-11-20T02:42:54;3.80;99.90
37050;DHT22;22958;51.232;6.826;2022-11-20T02:45:20;3.80;99.90
37050;DHT22;22958;51.232;6.826;2022-11-20T02:47:46;3.80;99.90
37050;DHT22;22958;51.232;6.826;2022-11-20T02:50:11;3.80;99.90
37050;DHT22;22958;51.232;6.826;2022-11-20T02:52:37;3.90;99.90
37050;DHT22;22958;51.232;6.826;2022-11-20T02:55:03;3.90;99.90
37050;DHT22;22958;51.232;6.826;2022-11-20T02:57:29;3.90;99.90
37050;DHT22;22958;51.232;6.826;2022-11-20T02:59:54;3.90;99.90
37050;DHT22;22958;51.232;6.826;2022-11-20T03:02:20;3.90;99.90
37050;DHT22;22958;51.232;6.826;2022-11-20T03:04:45;3.90;99.90
37050;DHT22;22958;51.232;6.826;2022-11-20T03:07:11;3.90;99.90
37050;DHT22;22958;51.232;6.826;2022-11-20T03:09:37;3.90;99.90
37050;DHT22;22958;51.232;6.826;2022-11-20T03:12:02;3.90;99.90
37050;DHT22;22958;51.232;6.826;2022-11-20T03:14:28;3.90;99.90
37050;DHT22;22958;51.232;6.826;2022-11-20T03:16:53;3.80;99.90
37050;DHT22;22958;51.232;6.826;2022-11-20T03:19:19;3.80;99.90
37050;DHT22;22958;51.232;6.826;2022-11-20T03:21:44;3.70;99.90
37050;DHT22;22958;51.232;6.826;2022-11-20T03:24:10;3.80;99.90
37050;DHT22;22958;51.232;6.826;2022-11-20T03:26:35;3.80;99.90
37050;DHT22;22958;51.232;6.826;2022-11-20T03:29:04;3.70;99.90
37050;DHT22;22958;51.232;6.826;2022-11-20T03:31:35;3.70;99.90
37050;DHT22;22958;51.232;6.826;2022-11-20T03:34:01;3.70;99.90
37050;DHT22;22958;51.232;6.826;2022-11-20T03:36:27;3.60;99.90
37050;DHT22;22958;51.232;6.826;2022-11-20T03:38:54;3.50;99.90
37050;DHT22;22958;51.232;6.826;2022-11-20T03:41:22;3.50;99.90
37050;DHT22;22958;51.232;6.826;2022-11-20T03:43:53;3.50;99.90
37050;DHT22;22958;51.232;6.826;2022-11-20T03:46:19;3.60;99.90
37050;DHT22;22958;51.232;6.826;2022-11-20T03:48:45;3.70;99.90
37050;DHT22;22958;51.232;6.826;2022-11-20T03:51:15;3.60;99.90
37050;DHT22;22958;51.232;6.826;2022-11-20T03:53:42;3.60;99.90
37050;DHT22;22958;51.232;6.826;2022-11-20T03:56:09;3.70;99.90
37050;DHT22;22958;51.232;6.826;2022-11-20T03:58:36;3.60;99.90
37050;DHT22;22958;51.232;6.826;2022-11-20T04:03:32;3.60;99.90
37050;DHT22;22958;51.232;6.826;2022-11-20T04:06:03;3.60;99.90
37050;DHT22;22958;51.232;6.826;2022-11-20T04:08:29;3.70;99.90
37050;DHT22;22958;51.232;6.826;2022-11-20T04:10:55;3.70;99.90
37050;DHT22;22958;51.232;6.826;2022-11-20T04:13:20;3.70;99.90
37050;DHT22;22958;51.232;6.826;2022-11-20T04:15:46;3.70;99.90
37050;DHT22;22958;51.232;6.826;2022-11-20T04:18:11;3.60;99.90
37050;DHT22;22958;51.232;6.826;2022-11-20T04:20:37;3.70;99.90
37050;DHT22;22958;51.232;6.826;2022-11-20T04:23:02;3.70;99.90
37050;DHT22;22958;51.232;6.826;2022-11-20T04:25:28;3.70;99.90
37050;DHT22;22958;51.232;6.826;2022-11-20T04:27:53;3.70;99.90
37050;DHT22;22958;51.232;6.826;2022-11-20T04:30:19;3.70;99.90
37050;DHT22;22958;51.232;6.826;2022-11-20T04:32:45;3.80;99.90
37050;DHT22;22958;51.232;6.826;2022-11-20T04:35:10;3.80;99.90
37050;DHT22;22958;51.232;6.826;2022-11-20T04:37:36;3.70;99.90
37050;DHT22;22958;51.232;6.826;2022-11-20T04:40:01;3.70;99.90
37050;DHT22;22958;51.232;6.826;2022-11-20T04:42:27;3.70;99.90
37050;DHT22;22958;51.232;6.826;2022-11-20T04:44:55;3.70;99.90
37050;DHT22;22958;51.232;6.826;2022-11-20T04:47:21;3.80;99.90
37050;DHT22;22958;51.232;6.826;2022-11-20T04:49:46;3.80;99.90
37050;DHT22;22958;51.232;6.826;2022-11-20T04:52:12;3.80;99.90
37050;DHT22;22958;51.232;6.826;2022-11-20T04:54:38;3.80;99.90
37050;DHT22;22958;51.232;6.826;2022-11-20T04:57:03;3.80;99.90
37050;DHT22;22958;51.232;6.826;2022-11-20T04:59:29;3.80;99.90
37050;DHT22;22958;51.232;6.826;2022-11-20T05:01:54;3.80;99.90
37050;DHT22;22958;51.232;6.826;2022-11-20T05:04:20;3.70;99.90
37050;DHT22;22958;51.232;6.826;2022-11-20T05:06:45;3.80;99.90
37050;DHT22;22958;51.232;6.826;2022-11-20T05:09:12;3.70;99.90
37050;DHT22;22958;51.232;6.826;2022-11-20T05:11:38;3.50;99.90
37050;DHT22;22958;51.232;6.826;2022-11-20T05:14:03;3.50;99.90
37050;DHT22;22958;51.232;6.826;2022-11-20T05:16:29;3.50;99.90
37050;DHT22;22958;51.232;6.826;2022-11-20T05:18:55;3.50;99.90
37050;DHT22;22958;51.232;6.826;2022-11-20T05:21:21;3.50;99.90
37050;DHT22;22958;51.232;6.826;2022-11-20T05:23:47;3.50;99.90
37050;DHT22;22958;51.232;6.826;2022-11-20T05:26:18;3.40;99.90
37050;DHT22;22958;51.232;6.826;2022-11-20T05:28:44;3.40;99.90
37050;DHT22;22958;51.232;6.826;2022-11-20T05:31:15;3.40;99.90
37050;DHT22;22958;51.232;6.826;2022-11-20T05:33:42;3.40;99.90
37050;DHT22;22958;51.232;6.826;2022-11-20T05:36:08;3.40;99.90
37050;DHT22;22958;51.232;6.826;2022-11-20T05:38:34;3.30;99.90
37050;DHT22;22958;51.232;6.826;2022-11-20T05:41:08;3.30;99.90
37050;DHT22;22958;51.232;6.826;2022-11-20T05:43:36;3.30;99.90
37050;DHT22;22958;51.232;6.826;2022-11-20T05:46:03;3.30;99.90
37050;DHT22;22958;51.232;6.826;2022-11-20T05:48:30;3.30;99.90
37050;DHT22;22958;51.232;6.826;2022-11-20T05:50:58;3.30;99.90
37050;DHT22;22958;51.232;6.826;2022-11-20T05:53:23;3.30;99.90
37050;DHT22;22958;51.232;6.826;2022-11-20T05:55:57;3.30;99.90
37050;DHT22;22958;51.232;6.826;2022-11-20T05:58:22;3.30;99.90
37050;DHT22;22958;51.232;6.826;2022-11-20T06:00:48;3.30;99.90
37050;DHT22;22958;51.232;6.826;2022-11-20T06:03:13;3.30;99.90
37050;DHT22;22958;51.232;6.826;2022-11-20T06:05:38;3.30;99.90
37050;DHT22;22958;51.232;6.826;2022-11-20T06:08:04;3.30;99.90
37050;DHT22;22958;51.232;6.826;2022-11-20T06:10:29;3.40;99.90
37050;DHT22;22958;51.232;6.826;2022-11-20T06:12:57;3.30;99.90
37050;DHT22;22958;51.232;6.826;2022-11-20T06:15:23;3.30;99.90
37050;DHT22;22958;51.232;6.826;2022-11-20T06:17:52;3.30;99.90
37050;DHT22;22958;51.232;6.826;2022-11-20T06:20:18;3.30;99.90
37050;DHT22;22958;51.232;6.826;2022-11-20T06:22:43;3.40;99.90
37050;DHT22;22958;51.232;6.826;2022-11-20T06:25:09;3.40;99.90
37050;DHT22;22958;51.232;6.826;2022-11-20T06:27:34;3.50;99.90
37050;DHT22;22958;51.232;6.826;2022-11-20T06:30:00;3.50;99.90
37050;DHT22;22958;51.232;6.826;2022-11-20T06:32:25;3.60;99.90
37050;DHT22;22958;51.232;6.826;2022-11-20T06:34:51;3.60;99.90
37050;DHT22;22958;51.232;6.826;2022-11-20T06:37:16;3.50;99.90
37050;DHT22;22958;51.232;6.826;2022-11-20T06:39:42;3.50;99.90
37050;DHT22;22958;51.232;6.826;2022-11-20T06:42:07;3.50;99.90
37050;DHT22;22958;51.232;6.826;2022-11-20T06:44:33;3.60;99.90
37050;DHT22;22958;51.232;6.826;2022-11-20T06:46:58;3.60;99.90
37050;DHT22;22958;51.232;6.826;2022-11-20T06:49:24;3.50;99.90
37050;DHT22;22958;51.232;6.826;2022-11-20T06:51:50;3.50;99.90
37050;DHT22;22958;51.232;6.826;2022-11-20T06:54:16;3.40;99.90
37050;DHT22;22958;51.232;6.826;2022-11-20T06:56:41;3.40;99.90
37050;DHT22;22958;51.232;6.826;2022-11-20T06:59:07;3.30;99.90
37050;DHT22;22958;51.232;6.826;2022-11-20T07:01:32;3.20;99.90
37050;DHT22;22958;51.232;6.826;2022-11-20T07:03:58;3.20;99.90
37050;DHT22;22958;51.232;6.826;2022-11-20T07:06:23;3.20;99.90
37050;DHT22;22958;51.232;6.826;2022-11-20T07:08:51;3.10;99.90
37050;DHT22;22958;51.232;6.826;2022-11-20T07:11:17;3.00;99.90
37050;DHT22;22958;51.232;6.826;2022-11-20T07:13:43;3.00;99.90
37050;DHT22;22958;51.232;6.826;2022-11-20T07:16:09;3.10;99.90
37050;DHT22;22958;51.232;6.826;2022-11-20T07:18:35;3.10;99.90
37050;DHT22;22958;51.232;6.826;2022-11-20T07:21:09;3.10;99.90
37050;DHT22;22958;51.232;6.826;2022-11-20T07:23:36;3.20;99.90
37050;DHT22;22958;51.232;6.826;2022-11-20T07:26:06;3.10;99.90
37050;DHT22;22958;51.232;6.826;2022-11-20T07:28:32;3.10;99.90
37050;DHT22;22958;51.232;6.826;2022-11-20T07:30:57;3.00;99.90
37050;DHT22;22958;51.232;6.826;2022-11-20T07:33:23;3.00;99.90
37050;DHT22;22958;51.232;6.826;2022-11-20T07:35:48;3.00;99.90
37050;DHT22;22958;51.232;6.826;2022-11-20T07:38:14;3.00;99.90
37050;DHT22;22958;51.232;6.826;2022-11-20T07:40:40;3.00;99.90
37050;DHT22;22958;51.232;6.826;2022-11-20T07:43:05;3.00;99.90
37050;DHT22;22958;51.232;6.826;2022-11-20T07:45:31;3.00;99.90
37050;DHT22;22958;51.232;6.826;2022-11-20T07:47:56;3.30;99.90
37050;DHT22;22958;51.232;6.826;2022-11-20T07:50:22;3.40;99.90
37050;DHT22;22958;51.232;6.826;2022-11-20T07:52:47;3.30;99.90
37050;DHT22;22958;51.232;6.826;2022-11-20T07:55:14;3.40;99.90
37050;DHT22;22958;51.232;6.826;2022-11-20T07:57:40;3.40;99.90
37050;DHT22;22958;51.232;6.826;2022-11-20T08:00:07;3.40;99.90
37050;DHT22;22958;51.232;6.826;2022-11-20T08:02:36;3.40;99.90
37050;DHT22;22958;51.232;6.826;2022-11-20T08:05:02;3.60;99.90
37050;DHT22;22958;51.232;6.826;2022-11-20T08:07:27;3.70;99.90
37050;DHT22;22958;51.232;6.826;2022-11-20T08:09:53;3.70;99.90
37050;DHT22;22958;51.232;6.826;2022-11-20T08:12:19;3.70;99.90
37050;DHT22;22958;51.232;6.826;2022-11-20T08:15:05;3.80;99.90
37050;DHT22;22958;51.232;6.826;2022-11-20T08:17:31;3.90;99.90
37050;DHT22;22958;51.232;6.826;2022-11-20T08:19:57;4.00;99.90
37050;DHT22;22958;51.232;6.826;2022-11-20T08:22:22;4.10;99.90
37050;DHT22;22958;51.232;6.826;2022-11-20T08:24:48;4.10;99.90
37050;DHT22;22958;51.232;6.826;2022-11-20T08:27:14;4.20;99.90
37050;DHT22;22958;51.232;6.826;2022-11-20T08:29:39;4.40;99.90
37050;DHT22;22958;51.232;6.826;2022-11-20T08:32:05;4.40;99.90
37050;DHT22;22958;51.232;6.826;2022-11-20T08:34:30;4.30;99.90
37050;DHT22;22958;51.232;6.826;2022-11-20T08:36:56;4.30;99.90
37050;DHT22;22958;51.232;6.826;2022-11-20T08:39:22;4.40;99.90
37050;DHT22;22958;51.232;6.826;2022-11-20T08:41:47;4.50;99.90
37050;DHT22;22958;51.232;6.826;2022-11-20T08:44:13;4.50;99.90
37050;DHT22;22958;51.232;6.826;2022-11-20T08:46:40;4.50;99.90
37050;DHT22;22958;51.232;6.826;2022-11-20T08:49:09;4.50;99.90
37050;DHT22;22958;51.232;6.826;2022-11-20T08:51:35;4.50;99.90
37050;DHT22;22958;51.232;6.826;2022-11-20T08:54:01;4.60;99.90
37050;DHT22;22958;51.232;6.826;2022-11-20T08:56:27;4.60;99.90
37050;DHT22;22958;51.232;6.826;2022-11-20T08:58:53;4.60;99.90
37050;DHT22;22958;51.232;6.826;2022-11-20T09:01:19;4.60;99.90
37050;DHT22;22958;51.232;6.826;2022-11-20T09:03:45;4.60;99.90
37050;DHT22;22958;51.232;6.826;2022-11-20T09:06:11;4.50;99.90
37050;DHT22;22958;51.232;6.826;2022-11-20T09:08:36;4.50;99.90
37050;DHT22;22958;51.232;6.826;2022-11-20T09:11:02;4.60;99.90
37050;DHT22;22958;51.232;6.826;2022-11-20T09:13:29;4.70;99.90
37050;DHT22;22958;51.232;6.826;2022-11-20T09:15:56;4.80;99.90
37050;DHT22;22958;51.232;6.826;2022-11-20T09:18:22;4.70;99.90
37050;DHT22;22958;51.232;6.826;2022-11-20T09:20:48;4.80;99.90
37050;DHT22;22958;51.232;6.826;2022-11-20T09:23:14;4.80;99.90
37050;DHT22;22958;51.232;6.826;2022-11-20T09:25:39;4.80;99.90
37050;DHT22;22958;51.232;6.826;2022-11-20T09:28:05;4.50;99.90
37050;DHT22;22958;51.232;6.826;2022-11-20T09:30:30;4.50;99.90
37050;DHT22;22958;51.232;6.826;2022-11-20T09:32:56;4.50;99.90
37050;DHT22;22958;51.232;6.826;2022-11-20T09:35:22;4.60;99.90
37050;DHT22;22958;51.232;6.826;2022-11-20T09:37:47;4.60;99.90
37050;DHT22;22958;51.232;6.826;2022-11-20T09:42:55;4.60;99.90
37050;DHT22;22958;51.232;6.826;2022-11-20T09:45:39;4.70;99.90
37050;DHT22;22958;51.232;6.826;2022-11-20T09:48:25;4.80;99.90
37050;DHT22;22958;51.232;6.826;2022-11-20T09:51:34;4.80;99.90
37050;DHT22;22958;51.232;6.826;2022-11-20T09:54:22;4.90;99.90
37050;DHT22;22958;51.232;6.826;2022-11-20T09:56:55;5.10;99.90
37050;DHT22;22958;51.232;6.826;2022-11-20T09:59:32;5.20;99.90
37050;DHT22;22958;51.232;6.826;2022-11-20T10:02:00;5.30;99.90
37050;DHT22;22958;51.232;6.826;2022-11-20T10:04:26;5.30;99.90
37050;DHT22;22958;51.232;6.826;2022-11-20T10:07:08;5.40;99.90
37050;DHT22;22958;51.232;6.826;2022-11-20T10:09:43;5.30;99.90
37050;DHT22;22958;51.232;6.826;2022-11-20T10:15:19;5.20;99.90
37050;DHT22;22958;51.232;6.826;2022-11-20T10:21:16;5.10;99.90
37050;DHT22;22958;51.232;6.826;2022-11-20T10:24:00;5.10;99.90
37050;DHT22;22958;51.232;6.826;2022-11-20T10:26:50;5.10;99.90
37050;DHT22;22958;51.232;6.826;2022-11-20T10:29:23;5.20;99.90
37050;DHT22;22958;51.232;6.826;2022-11-20T10:32:00;5.10;99.90
37050;DHT22;22958;51.232;6.826;2022-11-20T10:35:00;5.10;99.90
37050;DHT22;22958;51.232;6.826;2022-11-20T10:37:28;5.00;99.90
37050;DHT22;22958;51.232;6.826;2022-11-20T10:40:23;5.10;99.90
37050;DHT22;22958;51.232;6.826;2022-11-20T10:42:53;4.90;99.90
37050;DHT22;22958;51.232;6.826;2022-11-20T10:47:58;5.00;99.90
37050;DHT22;22958;51.232;6.826;2022-11-20T10:50:30;4.90;99.90
37050;DHT22;22958;51.232;6.826;2022-11-20T10:53:06;4.90;99.90
37050;DHT22;22958;51.232;6.826;2022-11-20T10:55:54;5.00;99.90
37050;DHT22;22958;51.232;6.826;2022-11-20T11:01:16;5.10;99.90
37050;DHT22;22958;51.232;6.826;2022-11-20T11:03:42;5.20;99.90
37050;DHT22;22958;51.232;6.826;2022-11-20T11:06:21;5.10;99.90
37050;DHT22;22958;51.232;6.826;2022-11-20T11:08:50;5.10;99.90
37050;DHT22;22958;51.232;6.826;2022-11-20T11:11:25;5.10;99.90
37050;DHT22;22958;51.232;6.826;2022-11-20T11:13:52;5.10;99.90
37050;DHT22;22958;51.232;6.826;2022-11-20T11:16:24;5.10;99.90
37050;DHT22;22958;51.232;6.826;2022-11-20T11:18:50;5.20;99.90
37050;DHT22;22958;51.232;6.826;2022-11-20T11:21:26;5.10;99.90
37050;DHT22;22958;51.232;6.826;2022-11-20T11:24:02;5.20;99.90
37050;DHT22;22958;51.232;6.826;2022-11-20T11:26:28;5.30;99.90
37050;DHT22;22958;51.232;6.826;2022-11-20T11:28:56;5.20;99.90
37050;DHT22;22958;51.232;6.826;2022-11-20T11:31:27;5.10;99.90
37050;DHT22;22958;51.232;6.826;2022-11-20T11:34:07;5.20;99.90
37050;DHT22;22958;51.232;6.826;2022-11-20T11:36:34;5.10;99.90
37050;DHT22;22958;51.232;6.826;2022-11-20T11:39:00;5.20;99.90
37050;DHT22;22958;51.232;6.826;2022-11-20T11:41:30;5.20;99.90
37050;DHT22;22958;51.232;6.826;2022-11-20T11:44:01;5.10;99.90
37050;DHT22;22958;51.232;6.826;2022-11-20T11:46:54;5.10;99.90
37050;DHT22;22958;51.232;6.826;2022-11-20T11:49:20;5.20;99.90
37050;DHT22;22958;51.232;6.826;2022-11-20T11:52:18;5.20;99.90
37050;DHT22;22958;51.232;6.826;2022-11-20T11:55:01;5.20;99.90
37050;DHT22;22958;51.232;6.826;2022-11-20T11:57:47;5.30;99.90
37050;DHT22;22958;51.232;6.826;2022-11-20T12:00:17;5.40;99.90
37050;DHT22;22958;51.232;6.826;2022-11-20T12:05:42;5.30;99.90
37050;DHT22;22958;51.232;6.826;2022-11-20T12:11:14;5.40;99.90
37050;DHT22;22958;51.232;6.826;2022-11-20T12:13:49;5.50;99.90
37050;DHT22;22958;51.232;6.826;2022-11-20T12:16:19;5.70;99.90
37050;DHT22;22958;51.232;6.826;2022-11-20T12:18:51;5.80;99.90
37050;DHT22;22958;51.232;6.826;2022-11-20T12:27:02;5.70;99.90
37050;DHT22;22958;51.232;6.826;2022-11-20T12:35:21;5.80;99.90
37050;DHT22;22958;51.232;6.826;2022-11-20T12:43:52;5.80;99.90
37050;DHT22;22958;51.232;6.826;2022-11-20T12:46:46;5.70;99.90
37050;DHT22;22958;51.232;6.826;2022-11-20T12:49:26;5.80;99.90
37050;DHT22;22958;51.232;6.826;2022-11-20T12:57:58;5.70;99.90
37050;DHT22;22958;51.232;6.826;2022-11-20T13:00:26;5.60;99.90
37050;DHT22;22958;51.232;6.826;2022-11-20T13:03:12;5.60;99.90
37050;DHT22;22958;51.232;6.826;2022-11-20T13:06:10;5.60;99.90
37050;DHT22;22958;51.232;6.826;2022-11-20T13:08:39;5.50;99.90
37050;DHT22;22958;51.232;6.826;2022-11-20T13:11:36;5.50;99.90
37050;DHT22;22958;51.232;6.826;2022-11-20T13:14:28;5.50;99.90
37050;DHT22;22958;51.232;6.826;2022-11-20T13:17:00;5.50;99.90
37050;DHT22;22958;51.232;6.826;2022-11-20T13:19:30;5.60;99.90
37050;DHT22;22958;51.232;6.826;2022-11-20T13:21:55;5.60;99.90
37050;DHT22;22958;51.232;6.826;2022-11-20T13:27:18;5.50;99.90
37050;DHT22;22958;51.232;6.826;2022-11-20T13:29:47;5.50;99.90
37050;DHT22;22958;51.232;6.826;2022-11-20T13:32:17;5.50;99.90
37050;DHT22;22958;51.232;6.826;2022-11-20T13:35:04;5.60;99.90
37050;DHT22;22958;51.232;6.826;2022-11-20T13:37:35;5.70;99.90
37050;DHT22;22958;51.232;6.826;2022-11-20T13:42:40;5.70;99.90
37050;DHT22;22958;51.232;6.826;2022-11-20T13:45:11;5.70;99.90
37050;DHT22;22958;51.232;6.826;2022-11-20T13:47:50;5.70;99.90
37050;DHT22;22958;51.232;6.826;2022-11-20T13:50:16;5.70;99.90
37050;DHT22;22958;51.232;6.826;2022-11-20T13:55:46;5.60;99.90
37050;DHT22;22958;51.232;6.826;2022-11-20T14:01:13;5.60;99.90
37050;DHT22;22958;51.232;6.826;2022-11-20T14:03:41;5.70;99.90
37050;DHT22;22958;51.232;6.826;2022-11-20T14:08:48;5.70;99.90
37050;DHT22;22958;51.232;6.826;2022-11-20T14:11:29;5.80;99.90
37050;DHT22;22958;51.232;6.826;2022-11-20T14:14:14;5.70;99.90
37050;DHT22;22958;51.232;6.826;2022-11-20T14:16:40;5.70;99.90
37050;DHT22;22958;51.232;6.826;2022-11-20T14:22:06;5.70;99.90
37050;DHT22;22958;51.232;6.826;2022-11-20T14:24:31;5.80;99.90
37050;DHT22;22958;51.232;6.826;2022-11-20T14:26:57;5.80;99.90
37050;DHT22;22958;51.232;6.826;2022-11-20T14:29:28;5.90;99.90
37050;DHT22;22958;51.232;6.826;2022-11-20T14:31:55;6.00;99.90
37050;DHT22;22958;51.232;6.826;2022-11-20T14:34:24;5.90;99.90
37050;DHT22;22958;51.232;6.826;2022-11-20T14:36:55;5.90;99.90
37050;DHT22;22958;51.232;6.826;2022-11-20T14:39:27;5.90;99.90
37050;DHT22;22958;51.232;6.826;2022-11-20T14:41:54;5.90;99.90
37050;DHT22;22958;51.232;6.826;2022-11-20T14:44:23;5.80;99.90
37050;DHT22;22958;51.232;6.826;2022-11-20T14:46:51;5.80;99.90
37050;DHT22;22958;51.232;6.826;2022-11-20T14:49:17;5.80;99.90
37050;DHT22;22958;51.232;6.826;2022-11-20T14:51:43;5.70;99.90
37050;DHT22;22958;51.232;6.826;2022-11-20T14:54:12;5.80;99.90
37050;DHT22;22958;51.232;6.826;2022-11-20T14:56:39;5.80;99.90
37050;DHT22;22958;51.232;6.826;2022-11-20T14:59:05;5.80;99.90
37050;DHT22;22958;51.232;6.826;2022-11-20T15:01:32;5.80;99.90
37050;DHT22;22958;51.232;6.826;2022-11-20T15:06:27;5.80;99.90
37050;DHT22;22958;51.232;6.826;2022-11-20T15:08:53;5.80;99.90
37050;DHT22;22958;51.232;6.826;2022-11-20T15:11:23;5.80;99.90
37050;DHT22;22958;51.232;6.826;2022-11-20T15:13:51;5.70;99.90
37050;DHT22;22958;51.232;6.826;2022-11-20T15:16:21;5.80;99.90
37050;DHT22;22958;51.232;6.826;2022-11-20T15:18:47;5.70;99.90
37050;DHT22;22958;51.232;6.826;2022-11-20T15:21:15;5.70;99.90
37050;DHT22;22958;51.232;6.826;2022-11-20T15:23:42;5.70;99.90
37050;DHT22;22958;51.232;6.826;2022-11-20T15:26:08;5.70;99.90
37050;DHT22;22958;51.232;6.826;2022-11-20T15:28:44;5.70;99.90
37050;DHT22;22958;51.232;6.826;2022-11-20T15:31:15;5.70;99.90
37050;DHT22;22958;51.232;6.826;2022-11-20T15:33:41;5.80;99.90
37050;DHT22;22958;51.232;6.826;2022-11-20T15:36:08;5.80;99.90
37050;DHT22;22958;51.232;6.826;2022-11-20T15:38:34;5.80;99.90
37050;DHT22;22958;51.232;6.826;2022-11-20T15:41:00;5.80;99.90
37050;DHT22;22958;51.232;6.826;2022-11-20T15:43:25;5.80;99.90
37050;DHT22;22958;51.232;6.826;2022-11-20T15:45:54;5.60;99.90
37050;DHT22;22958;51.232;6.826;2022-11-20T15:48:24;5.60;99.90
37050;DHT22;22958;51.232;6.826;2022-11-20T15:51:03;5.50;99.90
37050;DHT22;22958;51.232;6.826;2022-11-20T15:53:29;5.50;99.90
37050;DHT22;22958;51.232;6.826;2022-11-20T15:55:55;5.50;99.90
37050;DHT22;22958;51.232;6.826;2022-11-20T15:58:20;5.40;99.90
37050;DHT22;22958;51.232;6.826;2022-11-20T16:00:48;5.50;99.90
37050;DHT22;22958;51.232;6.826;2022-11-20T16:03:17;5.40;99.90
37050;DHT22;22958;51.232;6.826;2022-11-20T16:05:43;5.40;99.90
37050;DHT22;22958;51.232;6.826;2022-11-20T16:08:09;5.40;99.90
37050;DHT22;22958;51.232;6.826;2022-11-20T16:10:35;5.40;99.90
37050;DHT22;22958;51.232;6.826;2022-11-20T16:13:01;5.40;99.90
37050;DHT22;22958;51.232;6.826;2022-11-20T16:15:55;5.50;99.90
37050;DHT22;22958;51.232;6.826;2022-11-20T16:18:22;5.40;99.90
37050;DHT22;22958;51.232;6.826;2022-11-20T16:20:50;5.40;99.90
37050;DHT22;22958;51.232;6.826;2022-11-20T16:23:16;5.40;99.90
37050;DHT22;22958;51.232;6.826;2022-11-20T16:25:43;5.40;99.90
37050;DHT22;22958;51.232;6.826;2022-11-20T16:28:09;5.40;99.90
37050;DHT22;22958;51.232;6.826;2022-11-20T16:30:35;5.40;99.90
37050;DHT22;22958;51.232;6.826;2022-11-20T16:33:02;5.40;99.90
37050;DHT22;22958;51.232;6.826;2022-11-20T16:35:29;5.40;99.90
37050;DHT22;22958;51.232;6.826;2022-11-20T16:37:56;5.40;99.90
37050;DHT22;22958;51.232;6.826;2022-11-20T16:40:22;5.50;99.90
37050;DHT22;22958;51.232;6.826;2022-11-20T16:42:48;5.50;99.90
37050;DHT22;22958;51.232;6.826;2022-11-20T16:45:14;5.50;99.90
37050;DHT22;22958;51.232;6.826;2022-11-20T16:47:40;5.50;99.90
37050;DHT22;22958;51.232;6.826;2022-11-20T16:50:06;5.50;99.90
37050;DHT22;22958;51.232;6.826;2022-11-20T16:52:32;5.50;99.90
37050;DHT22;22958;51.232;6.826;2022-11-20T16:54:57;5.50;99.90
37050;DHT22;22958;51.232;6.826;2022-11-20T16:57:24;5.60;99.90
37050;DHT22;22958;51.232;6.826;2022-11-20T16:59:49;5.60;99.90
37050;DHT22;22958;51.232;6.826;2022-11-20T17:02:15;5.60;99.90
37050;DHT22;22958;51.232;6.826;2022-11-20T17:04:41;5.70;99.90
37050;DHT22;22958;51.232;6.826;2022-11-20T17:07:06;5.70;99.90
37050;DHT22;22958;51.232;6.826;2022-11-20T17:09:32;5.70;99.90